sensor_id;sensor_type;location;lat;lon;timestamp;P1;durP1;ratioP1;P2;durP2;ratioP2
7158;SDS011;3621;52.374;13.098;2022-08-21T00:01:22;2.80;;;2.33;;
7158;SDS011;3621;52.374;13.098;2022-08-21T00:03:51;2.80;;;2.70;;
7158;SDS011;3621;52.374;13.098;2022-08-21T00:06:20;2.43;;;2.20;;
7158;SDS011;3621;52.374;13.098;2022-08-21T00:08:50;2.20;;;2.10;;
7158;SDS011;3621;52.374;13.098;2022-08-21T00:11:17;2.57;;;2.47;;
7158;SDS011;3621;52.374;13.098;2022-08-21T00:13:44;2.30;;;2.20;;
7158;SDS011;3621;52.374;13.098;2022-08-21T00:16:11;2.53;;;2.43;;
7158;SDS011;3621;52.374;13.098;2022-08-21T00:18:38;2.50;;;2.30;;
7158;SDS011;3621;52.374;13.098;2022-08-21T00:21:05;2.60;;;2.40;;
7158;SDS011;3621;52.374;13.098;2022-08-21T00:23:33;3.00;;;2.90;;
7158;SDS011;3621;52.374;13.098;2022-08-21T00:26:01;3.47;;;3.20;;
7158;SDS011;3621;52.374;13.098;2022-08-21T00:28:28;3.00;;;2.90;;
7158;SDS011;3621;52.374;13.098;2022-08-21T00:30:55;2.80;;;2.70;;
7158;SDS011;3621;52.374;13.098;2022-08-21T00:33:22;2.47;;;2.37;;
7158;SDS011;3621;52.374;13.098;2022-08-21T00:35:49;3.10;;;3.00;;
7158;SDS011;3621;52.374;13.098;2022-08-21T00:38:16;3.33;;;3.13;;
7158;SDS011;3621;52.374;13.098;2022-08-21T00:40:44;3.17;;;2.97;;
7158;SDS011;3621;52.374;13.098;2022-08-21T00:43:15;3.40;;;3.20;;
7158;SDS011;3621;52.374;13.098;2022-08-21T00:45:44;3.17;;;2.97;;
7158;SDS011;3621;52.374;13.098;2022-08-21T00:48:11;2.90;;;2.70;;
7158;SDS011;3621;52.374;13.098;2022-08-21T00:50:40;3.00;;;2.80;;
7158;SDS011;3621;52.374;13.098;2022-08-21T00:53:10;3.10;;;2.90;;
7158;SDS011;3621;52.374;13.098;2022-08-21T00:55:39;3.13;;;2.70;;
7158;SDS011;3621;52.374;13.098;2022-08-21T00:58:08;2.93;;;2.83;;
7158;SDS011;3621;52.374;13.098;2022-08-21T01:00:39;2.60;;;2.43;;
7158;SDS011;3621;52.374;13.098;2022-08-21T01:03:09;2.60;;;2.50;;
7158;SDS011;3621;52.374;13.098;2022-08-21T01:05:40;2.53;;;2.43;;
7158;SDS011;3621;52.374;13.098;2022-08-21T01:08:08;2.13;;;2.03;;
7158;SDS011;3621;52.374;13.098;2022-08-21T01:10:36;2.73;;;2.60;;
7158;SDS011;3621;52.374;13.098;2022-08-21T01:13:04;2.10;;;2.00;;
7158;SDS011;3621;52.374;13.098;2022-08-21T01:15:35;2.10;;;2.00;;
7158;SDS011;3621;52.374;13.098;2022-08-21T01:18:05;2.30;;;2.20;;
7158;SDS011;3621;52.374;13.098;2022-08-21T01:20:34;2.37;;;2.23;;
7158;SDS011;3621;52.374;13.098;2022-08-21T01:23:03;2.00;;;1.90;;
7158;SDS011;3621;52.374;13.098;2022-08-21T01:25:31;1.77;;;1.67;;
7158;SDS011;3621;52.374;13.098;2022-08-21T01:28:00;2.40;;;2.30;;
7158;SDS011;3621;52.374;13.098;2022-08-21T01:30:32;2.00;;;1.90;;
7158;SDS011;3621;52.374;13.098;2022-08-21T01:33:01;1.83;;;1.73;;
7158;SDS011;3621;52.374;13.098;2022-08-21T01:35:28;2.20;;;2.10;;
7158;SDS011;3621;52.374;13.098;2022-08-21T01:37:55;1.90;;;1.80;;
7158;SDS011;3621;52.374;13.098;2022-08-21T01:40:23;2.27;;;2.17;;
7158;SDS011;3621;52.374;13.098;2022-08-21T01:42:50;2.33;;;2.23;;
7158;SDS011;3621;52.374;13.098;2022-08-21T01:45:18;1.97;;;1.87;;
7158;SDS011;3621;52.374;13.098;2022-08-21T01:47:45;2.00;;;1.90;;
7158;SDS011;3621;52.374;13.098;2022-08-21T01:50:15;1.87;;;1.77;;
7158;SDS011;3621;52.374;13.098;2022-08-21T01:52:44;2.00;;;1.90;;
7158;SDS011;3621;52.374;13.098;2022-08-21T01:55:11;2.33;;;2.23;;
7158;SDS011;3621;52.374;13.098;2022-08-21T01:57:39;2.17;;;2.07;;
7158;SDS011;3621;52.374;13.098;2022-08-21T02:00:08;2.27;;;2.17;;
7158;SDS011;3621;52.374;13.098;2022-08-21T02:02:37;1.77;;;1.77;;
7158;SDS011;3621;52.374;13.098;2022-08-21T02:05:05;2.10;;;2.00;;
7158;SDS011;3621;52.374;13.098;2022-08-21T02:07:35;2.60;;;2.50;;
7158;SDS011;3621;52.374;13.098;2022-08-21T02:10:03;2.00;;;1.90;;
7158;SDS011;3621;52.374;13.098;2022-08-21T02:12:32;2.40;;;2.10;;
7158;SDS011;3621;52.374;13.098;2022-08-21T02:15:00;2.27;;;2.17;;
7158;SDS011;3621;52.374;13.098;2022-08-21T02:17:36;2.03;;;1.83;;
7158;SDS011;3621;52.374;13.098;2022-08-21T02:20:04;2.63;;;2.43;;
7158;SDS011;3621;52.374;13.098;2022-08-21T02:22:31;2.30;;;2.20;;
7158;SDS011;3621;52.374;13.098;2022-08-21T02:24:58;2.07;;;1.97;;
7158;SDS011;3621;52.374;13.098;2022-08-21T02:27:25;2.10;;;2.00;;
7158;SDS011;3621;52.374;13.098;2022-08-21T02:29:53;1.90;;;1.80;;
7158;SDS011;3621;52.374;13.098;2022-08-21T02:32:22;2.10;;;2.00;;
7158;SDS011;3621;52.374;13.098;2022-08-21T02:34:49;1.93;;;1.83;;
7158;SDS011;3621;52.374;13.098;2022-08-21T02:37:16;2.13;;;2.03;;
7158;SDS011;3621;52.374;13.098;2022-08-21T02:39:42;1.83;;;1.77;;
7158;SDS011;3621;52.374;13.098;2022-08-21T02:42:09;1.77;;;1.77;;
7158;SDS011;3621;52.374;13.098;2022-08-21T02:44:36;3.57;;;1.63;;
7158;SDS011;3621;52.374;13.098;2022-08-21T02:47:03;2.00;;;1.90;;
7158;SDS011;3621;52.374;13.098;2022-08-21T02:49:32;1.53;;;1.40;;
7158;SDS011;3621;52.374;13.098;2022-08-21T02:51:59;1.87;;;1.70;;
7158;SDS011;3621;52.374;13.098;2022-08-21T02:54:26;1.60;;;1.50;;
7158;SDS011;3621;52.374;13.098;2022-08-21T02:56:53;2.00;;;1.90;;
7158;SDS011;3621;52.374;13.098;2022-08-21T02:59:20;1.47;;;1.37;;
7158;SDS011;3621;52.374;13.098;2022-08-21T03:01:46;1.70;;;1.60;;
7158;SDS011;3621;52.374;13.098;2022-08-21T03:04:13;2.03;;;1.40;;
7158;SDS011;3621;52.374;13.098;2022-08-21T03:06:42;1.87;;;1.77;;
7158;SDS011;3621;52.374;13.098;2022-08-21T03:09:09;1.30;;;1.30;;
7158;SDS011;3621;52.374;13.098;2022-08-21T03:11:36;1.30;;;1.20;;
7158;SDS011;3621;52.374;13.098;2022-08-21T03:14:03;1.60;;;1.50;;
7158;SDS011;3621;52.374;13.098;2022-08-21T03:16:30;1.67;;;1.57;;
7158;SDS011;3621;52.374;13.098;2022-08-21T03:18:57;1.57;;;1.47;;
7158;SDS011;3621;52.374;13.098;2022-08-21T03:21:24;1.30;;;1.20;;
7158;SDS011;3621;52.374;13.098;2022-08-21T03:23:52;1.33;;;1.23;;
7158;SDS011;3621;52.374;13.098;2022-08-21T03:26:20;1.60;;;1.50;;
7158;SDS011;3621;52.374;13.098;2022-08-21T03:28:46;1.33;;;1.33;;
7158;SDS011;3621;52.374;13.098;2022-08-21T03:31:13;1.60;;;1.50;;
7158;SDS011;3621;52.374;13.098;2022-08-21T03:33:42;1.20;;;1.10;;
7158;SDS011;3621;52.374;13.098;2022-08-21T03:36:09;1.57;;;1.37;;
7158;SDS011;3621;52.374;13.098;2022-08-21T03:38:36;1.40;;;1.30;;
7158;SDS011;3621;52.374;13.098;2022-08-21T03:41:06;1.73;;;1.63;;
7158;SDS011;3621;52.374;13.098;2022-08-21T03:43:33;1.40;;;1.33;;
7158;SDS011;3621;52.374;13.098;2022-08-21T03:46:01;1.57;;;1.47;;
7158;SDS011;3621;52.374;13.098;2022-08-21T03:48:28;1.20;;;1.10;;
7158;SDS011;3621;52.374;13.098;2022-08-21T03:50:55;1.97;;;1.87;;
7158;SDS011;3621;52.374;13.098;2022-08-21T03:53:22;2.57;;;1.27;;
7158;SDS011;3621;52.374;13.098;2022-08-21T03:55:50;1.03;;;1.00;;
7158;SDS011;3621;52.374;13.098;2022-08-21T03:58:19;1.93;;;1.60;;
7158;SDS011;3621;52.374;13.098;2022-08-21T04:00:49;1.50;;;1.17;;
7158;SDS011;3621;52.374;13.098;2022-08-21T04:03:17;1.57;;;1.17;;
7158;SDS011;3621;52.374;13.098;2022-08-21T04:05:45;1.47;;;1.37;;
7158;SDS011;3621;52.374;13.098;2022-08-21T04:08:12;2.20;;;1.13;;
7158;SDS011;3621;52.374;13.098;2022-08-21T04:10:42;1.90;;;1.63;;
7158;SDS011;3621;52.374;13.098;2022-08-21T04:13:10;1.60;;;1.50;;
7158;SDS011;3621;52.374;13.098;2022-08-21T04:15:38;1.20;;;1.20;;
7158;SDS011;3621;52.374;13.098;2022-08-21T04:18:07;1.57;;;1.47;;
7158;SDS011;3621;52.374;13.098;2022-08-21T04:20:34;2.87;;;1.50;;
7158;SDS011;3621;52.374;13.098;2022-08-21T04:23:02;1.60;;;1.20;;
7158;SDS011;3621;52.374;13.098;2022-08-21T04:25:29;1.40;;;1.30;;
7158;SDS011;3621;52.374;13.098;2022-08-21T04:27:56;1.10;;;1.10;;
7158;SDS011;3621;52.374;13.098;2022-08-21T04:30:24;1.30;;;1.20;;
7158;SDS011;3621;52.374;13.098;2022-08-21T04:32:52;1.17;;;1.07;;
7158;SDS011;3621;52.374;13.098;2022-08-21T04:35:20;1.57;;;1.23;;
7158;SDS011;3621;52.374;13.098;2022-08-21T04:37:49;1.30;;;1.20;;
7158;SDS011;3621;52.374;13.098;2022-08-21T04:40:17;1.40;;;1.30;;
7158;SDS011;3621;52.374;13.098;2022-08-21T04:42:45;1.33;;;1.00;;
7158;SDS011;3621;52.374;13.098;2022-08-21T04:45:16;1.20;;;1.10;;
7158;SDS011;3621;52.374;13.098;2022-08-21T04:47:47;0.87;;;0.80;;
7158;SDS011;3621;52.374;13.098;2022-08-21T04:50:16;1.20;;;1.07;;
7158;SDS011;3621;52.374;13.098;2022-08-21T04:52:43;1.20;;;1.20;;
7158;SDS011;3621;52.374;13.098;2022-08-21T04:55:10;0.80;;;0.80;;
7158;SDS011;3621;52.374;13.098;2022-08-21T04:57:38;1.30;;;1.20;;
7158;SDS011;3621;52.374;13.098;2022-08-21T05:00:07;0.90;;;0.87;;
7158;SDS011;3621;52.374;13.098;2022-08-21T05:02:37;1.37;;;1.00;;
7158;SDS011;3621;52.374;13.098;2022-08-21T05:05:04;1.13;;;1.03;;
7158;SDS011;3621;52.374;13.098;2022-08-21T05:07:33;1.03;;;1.00;;
7158;SDS011;3621;52.374;13.098;2022-08-21T05:10:00;1.43;;;1.07;;
7158;SDS011;3621;52.374;13.098;2022-08-21T05:12:28;2.40;;;1.30;;
7158;SDS011;3621;52.374;13.098;2022-08-21T05:14:58;1.73;;;1.20;;
7158;SDS011;3621;52.374;13.098;2022-08-21T05:17:25;1.30;;;1.20;;
7158;SDS011;3621;52.374;13.098;2022-08-21T05:19:52;1.43;;;1.30;;
7158;SDS011;3621;52.374;13.098;2022-08-21T05:22:20;1.30;;;1.20;;
7158;SDS011;3621;52.374;13.098;2022-08-21T05:24:48;1.50;;;1.40;;
7158;SDS011;3621;52.374;13.098;2022-08-21T05:27:15;1.80;;;0.97;;
7158;SDS011;3621;52.374;13.098;2022-08-21T05:29:42;1.30;;;1.00;;
7158;SDS011;3621;52.374;13.098;2022-08-21T05:32:09;1.67;;;1.30;;
7158;SDS011;3621;52.374;13.098;2022-08-21T05:34:37;2.87;;;1.57;;
7158;SDS011;3621;52.374;13.098;2022-08-21T05:37:04;4.20;;;1.70;;
7158;SDS011;3621;52.374;13.098;2022-08-21T05:39:31;3.73;;;1.90;;
7158;SDS011;3621;52.374;13.098;2022-08-21T05:42:00;2.40;;;1.80;;
7158;SDS011;3621;52.374;13.098;2022-08-21T05:44:27;1.50;;;1.40;;
7158;SDS011;3621;52.374;13.098;2022-08-21T05:46:54;1.30;;;1.20;;
7158;SDS011;3621;52.374;13.098;2022-08-21T05:49:21;1.60;;;1.20;;
7158;SDS011;3621;52.374;13.098;2022-08-21T05:51:47;1.40;;;1.17;;
7158;SDS011;3621;52.374;13.098;2022-08-21T05:54:14;1.50;;;1.00;;
7158;SDS011;3621;52.374;13.098;2022-08-21T05:56:41;1.63;;;1.10;;
7158;SDS011;3621;52.374;13.098;2022-08-21T05:59:10;2.67;;;1.40;;
7158;SDS011;3621;52.374;13.098;2022-08-21T06:01:38;1.40;;;1.30;;
7158;SDS011;3621;52.374;13.098;2022-08-21T06:04:06;2.10;;;1.20;;
7158;SDS011;3621;52.374;13.098;2022-08-21T06:06:33;2.90;;;1.20;;
7158;SDS011;3621;52.374;13.098;2022-08-21T06:09:00;1.77;;;1.60;;
7158;SDS011;3621;52.374;13.098;2022-08-21T06:11:28;2.73;;;1.43;;
7158;SDS011;3621;52.374;13.098;2022-08-21T06:13:55;2.67;;;1.60;;
7158;SDS011;3621;52.374;13.098;2022-08-21T06:16:24;1.83;;;1.33;;
7158;SDS011;3621;52.374;13.098;2022-08-21T06:18:51;3.00;;;1.80;;
7158;SDS011;3621;52.374;13.098;2022-08-21T06:21:19;3.77;;;1.97;;
7158;SDS011;3621;52.374;13.098;2022-08-21T06:23:46;3.13;;;1.40;;
7158;SDS011;3621;52.374;13.098;2022-08-21T06:26:13;1.63;;;1.27;;
7158;SDS011;3621;52.374;13.098;2022-08-21T06:28:40;2.10;;;1.60;;
7158;SDS011;3621;52.374;13.098;2022-08-21T06:31:11;2.20;;;1.50;;
7158;SDS011;3621;52.374;13.098;2022-08-21T06:33:41;2.17;;;1.83;;
7158;SDS011;3621;52.374;13.098;2022-08-21T06:36:08;2.83;;;1.33;;
7158;SDS011;3621;52.374;13.098;2022-08-21T06:38:35;2.10;;;1.70;;
7158;SDS011;3621;52.374;13.098;2022-08-21T06:41:03;1.80;;;1.70;;
7158;SDS011;3621;52.374;13.098;2022-08-21T06:43:30;1.60;;;1.33;;
7158;SDS011;3621;52.374;13.098;2022-08-21T06:45:57;1.63;;;1.10;;
7158;SDS011;3621;52.374;13.098;2022-08-21T06:48:24;1.83;;;1.13;;
7158;SDS011;3621;52.374;13.098;2022-08-21T06:50:52;1.80;;;1.17;;
7158;SDS011;3621;52.374;13.098;2022-08-21T06:53:21;1.40;;;1.30;;
7158;SDS011;3621;52.374;13.098;2022-08-21T06:55:48;1.80;;;1.23;;
7158;SDS011;3621;52.374;13.098;2022-08-21T06:58:15;4.10;;;1.83;;
7158;SDS011;3621;52.374;13.098;2022-08-21T07:00:43;1.87;;;1.43;;
7158;SDS011;3621;52.374;13.098;2022-08-21T07:03:21;2.67;;;1.20;;
7158;SDS011;3621;52.374;13.098;2022-08-21T07:05:50;1.30;;;1.20;;
7158;SDS011;3621;52.374;13.098;2022-08-21T07:08:19;2.40;;;1.33;;
7158;SDS011;3621;52.374;13.098;2022-08-21T07:10:48;1.30;;;1.20;;
7158;SDS011;3621;52.374;13.098;2022-08-21T07:13:15;1.10;;;1.00;;
7158;SDS011;3621;52.374;13.098;2022-08-21T07:15:43;1.10;;;1.00;;
7158;SDS011;3621;52.374;13.098;2022-08-21T07:18:11;1.00;;;1.00;;
7158;SDS011;3621;52.374;13.098;2022-08-21T07:20:38;2.07;;;1.10;;
7158;SDS011;3621;52.374;13.098;2022-08-21T07:23:08;3.33;;;1.27;;
7158;SDS011;3621;52.374;13.098;2022-08-21T07:25:42;2.40;;;1.50;;
7158;SDS011;3621;52.374;13.098;2022-08-21T07:28:09;1.80;;;1.53;;
7158;SDS011;3621;52.374;13.098;2022-08-21T07:30:36;2.97;;;1.53;;
7158;SDS011;3621;52.374;13.098;2022-08-21T07:33:03;3.20;;;1.73;;
7158;SDS011;3621;52.374;13.098;2022-08-21T07:35:30;1.77;;;1.13;;
7158;SDS011;3621;52.374;13.098;2022-08-21T07:37:58;1.77;;;1.27;;
7158;SDS011;3621;52.374;13.098;2022-08-21T07:40:26;4.47;;;1.33;;
7158;SDS011;3621;52.374;13.098;2022-08-21T07:42:53;3.87;;;1.40;;
7158;SDS011;3621;52.374;13.098;2022-08-21T07:45:20;1.83;;;0.93;;
7158;SDS011;3621;52.374;13.098;2022-08-21T07:47:49;1.83;;;1.30;;
7158;SDS011;3621;52.374;13.098;2022-08-21T07:50:17;2.70;;;1.00;;
7158;SDS011;3621;52.374;13.098;2022-08-21T07:52:44;2.80;;;1.37;;
7158;SDS011;3621;52.374;13.098;2022-08-21T07:55:12;5.03;;;1.77;;
7158;SDS011;3621;52.374;13.098;2022-08-21T07:57:43;2.60;;;1.40;;
7158;SDS011;3621;52.374;13.098;2022-08-21T08:00:12;2.60;;;1.50;;
7158;SDS011;3621;52.374;13.098;2022-08-21T08:02:43;2.10;;;1.37;;
7158;SDS011;3621;52.374;13.098;2022-08-21T08:05:11;2.67;;;1.20;;
7158;SDS011;3621;52.374;13.098;2022-08-21T08:07:38;3.17;;;1.17;;
7158;SDS011;3621;52.374;13.098;2022-08-21T08:10:07;1.13;;;1.03;;
7158;SDS011;3621;52.374;13.098;2022-08-21T08:12:35;2.40;;;1.30;;
7158;SDS011;3621;52.374;13.098;2022-08-21T08:15:05;2.00;;;1.10;;
7158;SDS011;3621;52.374;13.098;2022-08-21T08:17:33;4.73;;;1.67;;
7158;SDS011;3621;52.374;13.098;2022-08-21T08:20:01;1.17;;;0.90;;
7158;SDS011;3621;52.374;13.098;2022-08-21T08:22:28;2.50;;;1.17;;
7158;SDS011;3621;52.374;13.098;2022-08-21T08:24:55;3.10;;;1.10;;
7158;SDS011;3621;52.374;13.098;2022-08-21T08:27:22;2.67;;;1.00;;
7158;SDS011;3621;52.374;13.098;2022-08-21T08:29:50;3.13;;;0.83;;
7158;SDS011;3621;52.374;13.098;2022-08-21T08:32:19;1.57;;;0.80;;
7158;SDS011;3621;52.374;13.098;2022-08-21T08:34:45;2.40;;;1.20;;
7158;SDS011;3621;52.374;13.098;2022-08-21T08:37:14;1.87;;;1.10;;
7158;SDS011;3621;52.374;13.098;2022-08-21T08:39:41;1.73;;;1.00;;
7158;SDS011;3621;52.374;13.098;2022-08-21T08:42:09;3.43;;;0.97;;
7158;SDS011;3621;52.374;13.098;2022-08-21T08:44:39;2.37;;;1.20;;
7158;SDS011;3621;52.374;13.098;2022-08-21T08:47:07;2.80;;;1.60;;
7158;SDS011;3621;52.374;13.098;2022-08-21T08:49:39;1.43;;;1.00;;
7158;SDS011;3621;52.374;13.098;2022-08-21T08:52:15;1.70;;;1.23;;
7158;SDS011;3621;52.374;13.098;2022-08-21T08:54:47;5.13;;;1.07;;
7158;SDS011;3621;52.374;13.098;2022-08-21T08:57:23;2.90;;;1.30;;
7158;SDS011;3621;52.374;13.098;2022-08-21T08:59:52;1.67;;;1.30;;
7158;SDS011;3621;52.374;13.098;2022-08-21T09:02:22;2.80;;;1.40;;
7158;SDS011;3621;52.374;13.098;2022-08-21T09:04:54;2.00;;;1.30;;
7158;SDS011;3621;52.374;13.098;2022-08-21T09:07:24;4.90;;;1.50;;
7158;SDS011;3621;52.374;13.098;2022-08-21T09:10:04;3.77;;;1.70;;
7158;SDS011;3621;52.374;13.098;2022-08-21T09:12:40;4.37;;;1.90;;
7158;SDS011;3621;52.374;13.098;2022-08-21T09:15:19;3.83;;;1.70;;
7158;SDS011;3621;52.374;13.098;2022-08-21T09:17:55;2.67;;;2.30;;
7158;SDS011;3621;52.374;13.098;2022-08-21T09:20:38;3.13;;;1.77;;
7158;SDS011;3621;52.374;13.098;2022-08-21T09:23:14;2.67;;;1.40;;
7158;SDS011;3621;52.374;13.098;2022-08-21T09:25:53;2.40;;;1.80;;
7158;SDS011;3621;52.374;13.098;2022-08-21T09:28:24;1.60;;;1.23;;
7158;SDS011;3621;52.374;13.098;2022-08-21T09:30:51;2.30;;;1.43;;
7158;SDS011;3621;52.374;13.098;2022-08-21T09:33:23;3.93;;;1.50;;
7158;SDS011;3621;52.374;13.098;2022-08-21T09:35:52;2.57;;;1.40;;
7158;SDS011;3621;52.374;13.098;2022-08-21T09:38:25;2.13;;;1.47;;
7158;SDS011;3621;52.374;13.098;2022-08-21T09:40:57;1.40;;;1.10;;
7158;SDS011;3621;52.374;13.098;2022-08-21T09:43:26;2.57;;;1.33;;
7158;SDS011;3621;52.374;13.098;2022-08-21T09:46:09;4.57;;;1.80;;
7158;SDS011;3621;52.374;13.098;2022-08-21T09:48:39;2.27;;;1.10;;
7158;SDS011;3621;52.374;13.098;2022-08-21T09:51:11;2.23;;;1.43;;
7158;SDS011;3621;52.374;13.098;2022-08-21T09:53:42;3.63;;;1.47;;
7158;SDS011;3621;52.374;13.098;2022-08-21T09:59:19;4.80;;;1.80;;
7158;SDS011;3621;52.374;13.098;2022-08-21T10:01:52;5.53;;;1.60;;
7158;SDS011;3621;52.374;13.098;2022-08-21T10:04:21;1.33;;;1.23;;
7158;SDS011;3621;52.374;13.098;2022-08-21T10:06:51;1.07;;;1.00;;
7158;SDS011;3621;52.374;13.098;2022-08-21T10:09:19;3.90;;;1.60;;
7158;SDS011;3621;52.374;13.098;2022-08-21T10:11:52;3.90;;;2.07;;
7158;SDS011;3621;52.374;13.098;2022-08-21T10:14:37;2.40;;;1.47;;
7158;SDS011;3621;52.374;13.098;2022-08-21T10:17:14;1.70;;;1.10;;
7158;SDS011;3621;52.374;13.098;2022-08-21T10:19:46;1.80;;;1.30;;
7158;SDS011;3621;52.374;13.098;2022-08-21T10:22:24;2.03;;;1.40;;
7158;SDS011;3621;52.374;13.098;2022-08-21T10:25:06;1.00;;;0.80;;
7158;SDS011;3621;52.374;13.098;2022-08-21T10:27:42;1.60;;;1.20;;
7158;SDS011;3621;52.374;13.098;2022-08-21T10:30:17;2.27;;;1.27;;
7158;SDS011;3621;52.374;13.098;2022-08-21T10:32:57;1.27;;;1.17;;
7158;SDS011;3621;52.374;13.098;2022-08-21T10:35:40;1.97;;;1.40;;
7158;SDS011;3621;52.374;13.098;2022-08-21T10:38:24;1.20;;;1.10;;
7158;SDS011;3621;52.374;13.098;2022-08-21T10:41:14;1.30;;;1.10;;
7158;SDS011;3621;52.374;13.098;2022-08-21T10:43:50;2.30;;;1.17;;
7158;SDS011;3621;52.374;13.098;2022-08-21T10:46:27;1.33;;;1.20;;
7158;SDS011;3621;52.374;13.098;2022-08-21T10:49:05;3.67;;;1.07;;
7158;SDS011;3621;52.374;13.098;2022-08-21T10:51:41;3.20;;;1.60;;
7158;SDS011;3621;52.374;13.098;2022-08-21T10:54:20;3.30;;;2.03;;
7158;SDS011;3621;52.374;13.098;2022-08-21T10:56:54;1.90;;;1.70;;
7158;SDS011;3621;52.374;13.098;2022-08-21T10:59:25;1.43;;;1.33;;
7158;SDS011;3621;52.374;13.098;2022-08-21T11:01:57;1.43;;;1.30;;
7158;SDS011;3621;52.374;13.098;2022-08-21T11:04:28;1.73;;;1.53;;
7158;SDS011;3621;52.374;13.098;2022-08-21T11:07:03;1.37;;;1.10;;
7158;SDS011;3621;52.374;13.098;2022-08-21T11:09:38;1.83;;;1.27;;
7158;SDS011;3621;52.374;13.098;2022-08-21T11:12:12;1.03;;;1.03;;
7158;SDS011;3621;52.374;13.098;2022-08-21T11:14:51;1.30;;;1.10;;
7158;SDS011;3621;52.374;13.098;2022-08-21T11:17:24;1.80;;;1.00;;
7158;SDS011;3621;52.374;13.098;2022-08-21T11:19:58;1.30;;;1.20;;
7158;SDS011;3621;52.374;13.098;2022-08-21T11:22:33;1.23;;;0.90;;
7158;SDS011;3621;52.374;13.098;2022-08-21T11:25:08;2.03;;;1.20;;
7158;SDS011;3621;52.374;13.098;2022-08-21T11:27:44;2.00;;;1.17;;
7158;SDS011;3621;52.374;13.098;2022-08-21T11:30:15;1.40;;;1.27;;
7158;SDS011;3621;52.374;13.098;2022-08-21T11:35:34;1.80;;;1.00;;
7158;SDS011;3621;52.374;13.098;2022-08-21T11:38:11;1.07;;;1.07;;
7158;SDS011;3621;52.374;13.098;2022-08-21T11:40:52;1.00;;;0.90;;
7158;SDS011;3621;52.374;13.098;2022-08-21T11:43:33;1.70;;;1.27;;
7158;SDS011;3621;52.374;13.098;2022-08-21T11:46:09;1.27;;;0.77;;
7158;SDS011;3621;52.374;13.098;2022-08-21T11:48:45;1.57;;;1.10;;
7158;SDS011;3621;52.374;13.098;2022-08-21T11:51:21;2.03;;;1.27;;
7158;SDS011;3621;52.374;13.098;2022-08-21T11:53:56;1.53;;;0.90;;
7158;SDS011;3621;52.374;13.098;2022-08-21T11:56:31;5.43;;;1.60;;
7158;SDS011;3621;52.374;13.098;2022-08-21T11:59:02;3.27;;;1.17;;
7158;SDS011;3621;52.374;13.098;2022-08-21T12:01:35;1.93;;;1.73;;
7158;SDS011;3621;52.374;13.098;2022-08-21T12:04:06;1.90;;;1.50;;
7158;SDS011;3621;52.374;13.098;2022-08-21T12:06:43;2.53;;;1.57;;
7158;SDS011;3621;52.374;13.098;2022-08-21T12:09:25;2.77;;;1.50;;
7158;SDS011;3621;52.374;13.098;2022-08-21T12:12:01;1.50;;;1.30;;
7158;SDS011;3621;52.374;13.098;2022-08-21T12:14:39;2.40;;;1.30;;
7158;SDS011;3621;52.374;13.098;2022-08-21T12:17:07;1.80;;;1.47;;
7158;SDS011;3621;52.374;13.098;2022-08-21T12:19:42;1.83;;;1.23;;
7158;SDS011;3621;52.374;13.098;2022-08-21T12:22:11;3.10;;;1.47;;
7158;SDS011;3621;52.374;13.098;2022-08-21T12:24:40;1.67;;;1.20;;
7158;SDS011;3621;52.374;13.098;2022-08-21T12:27:26;8.53;;;2.00;;
7158;SDS011;3621;52.374;13.098;2022-08-21T12:29:55;2.23;;;1.30;;
7158;SDS011;3621;52.374;13.098;2022-08-21T12:32:27;1.70;;;1.37;;
7158;SDS011;3621;52.374;13.098;2022-08-21T12:34:55;3.23;;;1.57;;
7158;SDS011;3621;52.374;13.098;2022-08-21T12:37:29;2.80;;;1.40;;
7158;SDS011;3621;52.374;13.098;2022-08-21T12:40:04;2.60;;;1.60;;
7158;SDS011;3621;52.374;13.098;2022-08-21T12:42:41;2.83;;;1.70;;
7158;SDS011;3621;52.374;13.098;2022-08-21T12:45:14;2.73;;;1.50;;
7158;SDS011;3621;52.374;13.098;2022-08-21T12:47:47;2.20;;;1.57;;
7158;SDS011;3621;52.374;13.098;2022-08-21T12:50:19;3.63;;;1.60;;
7158;SDS011;3621;52.374;13.098;2022-08-21T12:52:51;2.57;;;1.17;;
7158;SDS011;3621;52.374;13.098;2022-08-21T12:55:28;1.60;;;1.50;;
7158;SDS011;3621;52.374;13.098;2022-08-21T12:57:59;3.37;;;1.33;;
7158;SDS011;3621;52.374;13.098;2022-08-21T13:00:27;1.73;;;1.30;;
7158;SDS011;3621;52.374;13.098;2022-08-21T13:02:55;1.80;;;1.47;;
7158;SDS011;3621;52.374;13.098;2022-08-21T13:05:30;2.63;;;1.20;;
7158;SDS011;3621;52.374;13.098;2022-08-21T13:08:02;2.27;;;1.50;;
7158;SDS011;3621;52.374;13.098;2022-08-21T13:10:30;5.27;;;1.80;;
7158;SDS011;3621;52.374;13.098;2022-08-21T13:13:01;4.87;;;1.90;;
7158;SDS011;3621;52.374;13.098;2022-08-21T13:15:30;1.70;;;1.40;;
7158;SDS011;3621;52.374;13.098;2022-08-21T13:18:00;4.30;;;1.80;;
7158;SDS011;3621;52.374;13.098;2022-08-21T13:20:28;4.30;;;2.20;;
7158;SDS011;3621;52.374;13.098;2022-08-21T13:22:56;4.30;;;2.20;;
7158;SDS011;3621;52.374;13.098;2022-08-21T13:25:25;4.60;;;1.60;;
7158;SDS011;3621;52.374;13.098;2022-08-21T13:27:58;4.83;;;1.90;;
7158;SDS011;3621;52.374;13.098;2022-08-21T13:30:31;3.57;;;1.97;;
7158;SDS011;3621;52.374;13.098;2022-08-21T13:32:59;3.83;;;1.70;;
7158;SDS011;3621;52.374;13.098;2022-08-21T13:35:28;1.77;;;1.20;;
7158;SDS011;3621;52.374;13.098;2022-08-21T13:38:01;4.93;;;1.90;;
7158;SDS011;3621;52.374;13.098;2022-08-21T13:40:30;2.70;;;1.80;;
7158;SDS011;3621;52.374;13.098;2022-08-21T13:43:09;3.40;;;2.37;;
7158;SDS011;3621;52.374;13.098;2022-08-21T13:45:42;2.23;;;1.80;;
7158;SDS011;3621;52.374;13.098;2022-08-21T13:48:10;2.80;;;1.40;;
7158;SDS011;3621;52.374;13.098;2022-08-21T13:50:37;1.87;;;1.30;;
7158;SDS011;3621;52.374;13.098;2022-08-21T13:53:06;2.37;;;1.50;;
7158;SDS011;3621;52.374;13.098;2022-08-21T13:55:45;3.00;;;1.80;;
7158;SDS011;3621;52.374;13.098;2022-08-21T13:58:23;2.13;;;1.33;;
7158;SDS011;3621;52.374;13.098;2022-08-21T14:00:52;4.30;;;1.90;;
7158;SDS011;3621;52.374;13.098;2022-08-21T14:03:26;1.80;;;1.40;;
7158;SDS011;3621;52.374;13.098;2022-08-21T14:05:58;1.43;;;1.10;;
7158;SDS011;3621;52.374;13.098;2022-08-21T14:08:27;3.97;;;1.97;;
7158;SDS011;3621;52.374;13.098;2022-08-21T14:10:59;2.63;;;1.33;;
7158;SDS011;3621;52.374;13.098;2022-08-21T14:13:30;4.07;;;1.73;;
7158;SDS011;3621;52.374;13.098;2022-08-21T14:16:03;3.57;;;1.80;;
7158;SDS011;3621;52.374;13.098;2022-08-21T14:19:07;2.47;;;1.50;;
7158;SDS011;3621;52.374;13.098;2022-08-21T14:21:36;2.27;;;1.57;;
7158;SDS011;3621;52.374;13.098;2022-08-21T14:24:06;1.63;;;1.50;;
7158;SDS011;3621;52.374;13.098;2022-08-21T14:26:37;2.13;;;1.23;;
7158;SDS011;3621;52.374;13.098;2022-08-21T14:29:13;1.43;;;1.30;;
7158;SDS011;3621;52.374;13.098;2022-08-21T14:31:41;1.30;;;1.17;;
7158;SDS011;3621;52.374;13.098;2022-08-21T14:34:12;1.73;;;1.40;;
7158;SDS011;3621;52.374;13.098;2022-08-21T14:36:41;1.50;;;1.27;;
7158;SDS011;3621;52.374;13.098;2022-08-21T14:39:08;2.90;;;2.07;;
7158;SDS011;3621;52.374;13.098;2022-08-21T14:41:36;3.10;;;1.57;;
7158;SDS011;3621;52.374;13.098;2022-08-21T14:44:03;3.10;;;1.50;;
7158;SDS011;3621;52.374;13.098;2022-08-21T14:46:32;1.93;;;1.73;;
7158;SDS011;3621;52.374;13.098;2022-08-21T14:49:00;2.23;;;2.03;;
7158;SDS011;3621;52.374;13.098;2022-08-21T14:51:27;2.17;;;1.60;;
7158;SDS011;3621;52.374;13.098;2022-08-21T14:53:54;1.70;;;1.60;;
7158;SDS011;3621;52.374;13.098;2022-08-21T14:56:21;1.67;;;1.57;;
7158;SDS011;3621;52.374;13.098;2022-08-21T14:58:51;2.33;;;2.10;;
7158;SDS011;3621;52.374;13.098;2022-08-21T15:01:21;3.83;;;2.20;;
7158;SDS011;3621;52.374;13.098;2022-08-21T15:03:50;2.30;;;1.90;;
7158;SDS011;3621;52.374;13.098;2022-08-21T15:06:17;2.20;;;1.77;;
7158;SDS011;3621;52.374;13.098;2022-08-21T15:08:45;2.87;;;2.17;;
7158;SDS011;3621;52.374;13.098;2022-08-21T15:11:15;1.93;;;1.40;;
7158;SDS011;3621;52.374;13.098;2022-08-21T15:13:43;2.90;;;1.70;;
7158;SDS011;3621;52.374;13.098;2022-08-21T15:16:11;1.73;;;1.40;;
7158;SDS011;3621;52.374;13.098;2022-08-21T15:18:39;1.70;;;1.60;;
7158;SDS011;3621;52.374;13.098;2022-08-21T15:21:09;2.97;;;1.30;;
7158;SDS011;3621;52.374;13.098;2022-08-21T15:23:36;1.53;;;1.43;;